Time;durP1;ratioP1;P1;durP2;ratioP2;P2;SDS_P1;SDS_P2;PMS_P1;PMS_P2;Temp;Humidity;BMP_temperature;BMP_pressure;BME280_temperature;BME280_humidity;BME280_pressure;Samples;Min_cycle;Max_cycle;Signal;HPM_P1;HPM_P2
2023/12/06 00:00:21;;;;;;;0.80;0.67;;;5.70;99.90;;;;;;5035052;28;20182;-88
2023/12/06 00:02:49;;;;;;;1.17;0.90;;;6.00;99.90;;;;;;5033728;28;20180;-88
2023/12/06 00:05:15;;;;;;;0.70;0.70;;;5.70;99.90;;;;;;5031125;28;20209;-88
2023/12/06 00:07:40;;;;;;;1.10;0.80;;;6.00;99.90;;;;;;5030814;28;20185;-88
2023/12/06 00:10:07;;;;;;;0.90;0.80;;;6.00;99.90;;;;;;5035496;28;20188;-88
2023/12/06 00:12:32;;;;;;;1.00;0.80;;;5.80;99.90;;;;;;5030820;28;20706;-88
2023/12/06 00:14:58;;;;;;;0.80;0.80;;;5.90;99.90;;;;;;5031808;28;20229;-88
2023/12/06 00:17:23;;;;;;;0.70;0.70;;;5.70;99.90;;;;;;5035584;28;20197;-88
2023/12/06 00:19:49;;;;;;;1.23;0.60;;;6.10;99.90;;;;;;5042150;28;20206;-88
2023/12/06 00:22:14;;;;;;;0.77;0.73;;;6.20;99.90;;;;;;5071009;28;20196;-88
2023/12/06 00:24:40;;;;;;;0.70;0.70;;;6.20;99.90;;;;;;5052701;28;20296;-88
2023/12/06 00:27:05;;;;;;;1.07;0.60;;;5.90;99.90;;;;;;5049602;28;20208;-88
2023/12/06 00:29:31;;;;;;;0.80;0.80;;;6.30;99.90;;;;;;5055640;28;21353;-88
2023/12/06 00:31:56;;;;;;;0.70;0.60;;;5.80;99.90;;;;;;5039443;28;20194;-88
2023/12/06 00:34:22;;;;;;;0.70;0.70;;;6.30;99.90;;;;;;5037440;28;20585;-88
2023/12/06 00:36:48;;;;;;;0.90;0.70;;;6.40;99.90;;;;;;5027848;28;20224;-88
2023/12/06 00:39:14;;;;;;;0.77;0.70;;;5.70;99.90;;;;;;5029746;28;20183;-88
2023/12/06 00:41:41;;;;;;;1.08;0.70;;;5.80;99.90;;;;;;5030754;28;20241;-88
2023/12/06 00:44:07;;;;;;;0.60;0.60;;;6.40;99.90;;;;;;5032680;28;20197;-88
2023/12/06 00:46:33;;;;;;;0.75;0.75;;;6.00;99.90;;;;;;5033175;28;20190;-88
2023/12/06 00:48:59;;;;;;;0.70;0.70;;;6.10;99.90;;;;;;5049473;28;20190;-88
2023/12/06 00:51:25;;;;;;;1.15;0.70;;;6.00;99.90;;;;;;5033061;28;20446;-88
2023/12/06 00:53:51;;;;;;;0.73;0.60;;;5.90;99.90;;;;;;5037539;28;20204;-88
2023/12/06 00:56:16;;;;;;;0.70;0.60;;;6.40;99.90;;;;;;5057498;28;20444;-88
2023/12/06 00:58:42;;;;;;;0.70;0.60;;;6.00;99.90;;;;;;5053613;28;20670;-88
2023/12/06 01:01:08;;;;;;;0.80;0.70;;;6.30;99.90;;;;;;5053424;28;20195;-88
2023/12/06 01:03:34;;;;;;;0.80;0.60;;;5.90;99.90;;;;;;5051574;28;20230;-88
2023/12/06 01:05:59;;;;;;;0.70;0.60;;;6.20;99.90;;;;;;5043159;28;20189;-88
2023/12/06 01:08:25;;;;;;;0.87;0.60;;;5.90;99.90;;;;;;5037500;28;20177;-88
2023/12/06 01:10:51;;;;;;;0.70;0.60;;;5.90;99.90;;;;;;5038261;28;20668;-88
2023/12/06 01:13:17;;;;;;;0.70;0.60;;;5.90;99.90;;;;;;5036999;28;20440;-88
2023/12/06 01:15:43;;;;;;;0.80;0.60;;;6.30;99.90;;;;;;5032539;28;20275;-88
2023/12/06 01:18:08;;;;;;;0.70;0.57;;;5.90;99.90;;;;;;5036831;28;20295;-88
2023/12/06 01:20:34;;;;;;;0.87;0.60;;;5.90;99.90;;;;;;5038936;28;20174;-88
2023/12/06 01:22:59;;;;;;;0.70;0.60;;;5.70;99.90;;;;;;5036025;28;20182;-88
2023/12/06 01:25:25;;;;;;;0.70;0.50;;;5.80;99.90;;;;;;5038254;28;20194;-88
2023/12/06 01:27:50;;;;;;;0.87;0.73;;;5.80;99.90;;;;;;5041116;28;20279;-88
2023/12/06 01:30:16;;;;;;;0.80;0.60;;;5.70;99.90;;;;;;5041169;28;20567;-88
2023/12/06 01:32:41;;;;;;;0.70;0.70;;;5.60;99.90;;;;;;5045144;28;20182;-88
2023/12/06 01:35:08;;;;;;;0.60;0.60;;;6.10;99.90;;;;;;5061252;28;20202;-88
2023/12/06 01:37:34;;;;;;;0.90;0.75;;;5.60;99.90;;;;;;5050382;28;20225;-88
2023/12/06 01:39:59;;;;;;;0.67;0.60;;;5.70;99.90;;;;;;5040156;28;20710;-88
2023/12/06 01:42:27;;;;;;;0.83;0.70;;;5.60;99.90;;;;;;5054744;28;20189;-88
2023/12/06 01:44:52;;;;;;;1.13;0.80;;;6.00;99.90;;;;;;5035272;28;20201;-88
2023/12/06 01:47:20;;;;;;;0.70;0.57;;;5.80;99.90;;;;;;5035294;28;20325;-87
2023/12/06 01:49:46;;;;;;;1.38;0.77;;;5.60;99.90;;;;;;5040130;28;20638;-88
2023/12/06 01:52:12;;;;;;;0.60;0.50;;;5.80;99.90;;;;;;5035251;28;20182;-88
2023/12/06 01:54:37;;;;;;;0.60;0.60;;;5.60;99.90;;;;;;5036131;28;20758;-88
2023/12/06 01:57:04;;;;;;;0.60;0.60;;;5.50;99.90;;;;;;5039945;28;20229;-88
2023/12/06 01:59:29;;;;;;;0.60;0.60;;;5.80;99.90;;;;;;5036430;28;20662;-88
2023/12/06 02:01:55;;;;;;;0.70;0.60;;;5.50;99.90;;;;;;5055301;28;20444;-88
2023/12/06 02:04:21;;;;;;;0.70;0.60;;;5.70;99.90;;;;;;5058599;28;20550;-86
2023/12/06 02:06:46;;;;;;;0.60;0.57;;;5.80;99.90;;;;;;5040768;28;20246;-88
2023/12/06 02:09:12;;;;;;;1.20;0.60;;;6.10;99.90;;;;;;5055133;28;20190;-88
2023/12/06 02:11:38;;;;;;;0.60;0.50;;;5.70;99.90;;;;;;5043887;28;20200;-88
2023/12/06 02:14:04;;;;;;;0.70;0.70;;;5.70;99.90;;;;;;5062943;28;20213;-88
2023/12/06 02:16:30;;;;;;;0.60;0.50;;;5.80;99.90;;;;;;5064257;28;20185;-88
2023/12/06 02:18:56;;;;;;;1.13;0.70;;;5.80;99.90;;;;;;5067599;28;20177;-88
2023/12/06 02:21:22;;;;;;;0.80;0.60;;;6.00;99.90;;;;;;5074212;28;20637;-88
2023/12/06 02:23:49;;;;;;;0.60;0.45;;;6.20;99.90;;;;;;5058468;28;20223;-88
2023/12/06 02:26:14;;;;;;;0.68;0.57;;;6.00;99.90;;;;;;5046078;28;20211;-88
2023/12/06 02:28:40;;;;;;;0.80;0.60;;;5.80;99.90;;;;;;5052713;28;20275;-88
2023/12/06 02:31:05;;;;;;;0.73;0.50;;;6.20;99.90;;;;;;5039214;28;20235;-88
2023/12/06 02:33:33;;;;;;;0.60;0.50;;;5.70;99.90;;;;;;5054809;28;20692;-88
2023/12/06 02:36:01;;;;;;;0.60;0.50;;;5.70;99.90;;;;;;5053708;28;20271;-88
2023/12/06 02:38:28;;;;;;;1.10;1.00;;;6.10;99.90;;;;;;5053399;28;20335;-88
2023/12/06 02:40:56;;;;;;;0.60;0.50;;;6.20;99.90;;;;;;5038349;28;20219;-88
2023/12/06 02:43:22;;;;;;;0.60;0.60;;;5.90;99.90;;;;;;5037112;28;20197;-88
2023/12/06 02:45:48;;;;;;;0.60;0.50;;;6.20;99.90;;;;;;5034205;28;20263;-88
2023/12/06 02:48:15;;;;;;;0.60;0.50;;;5.80;99.90;;;;;;5036021;28;20439;-88
2023/12/06 02:50:40;;;;;;;1.02;0.60;;;5.90;99.90;;;;;;5036703;28;20837;-88
2023/12/06 02:53:06;;;;;;;0.80;0.60;;;6.10;99.90;;;;;;5039126;28;20231;-88
2023/12/06 02:55:31;;;;;;;0.70;0.70;;;5.70;99.90;;;;;;5061527;28;20215;-88
2023/12/06 02:57:57;;;;;;;0.77;0.77;;;6.30;99.90;;;;;;5060852;28;20355;-88
2023/12/06 03:00:22;;;;;;;0.70;0.57;;;6.10;99.90;;;;;;5040904;28;20218;-88
2023/12/06 03:02:48;;;;;;;0.60;0.50;;;5.90;99.90;;;;;;5034276;28;20322;-88
2023/12/06 03:05:13;;;;;;;0.90;0.50;;;6.20;99.90;;;;;;5031866;28;20205;-88
2023/12/06 03:07:39;;;;;;;1.77;1.00;;;6.00;99.90;;;;;;5053743;28;20190;-88
2023/12/06 03:10:05;;;;;;;0.77;0.70;;;5.90;99.90;;;;;;5038784;28;20178;-88
2023/12/06 03:12:31;;;;;;;0.75;0.60;;;5.60;99.90;;;;;;5035026;28;20268;-88
2023/12/06 03:14:56;;;;;;;1.00;0.70;;;6.00;99.90;;;;;;5036020;28;20305;-88
2023/12/06 03:17:22;;;;;;;1.20;0.80;;;5.90;99.90;;;;;;5036466;28;20205;-88
2023/12/06 03:19:47;;;;;;;0.60;0.50;;;6.30;99.90;;;;;;5032756;28;20194;-88
2023/12/06 03:22:13;;;;;;;0.70;0.60;;;5.70;99.90;;;;;;5034849;28;20188;-88
2023/12/06 03:24:38;;;;;;;0.87;0.67;;;5.80;99.90;;;;;;5035293;28;20292;-88
2023/12/06 03:27:04;;;;;;;0.83;0.60;;;5.90;99.90;;;;;;5033638;28;20569;-88
2023/12/06 03:29:29;;;;;;;0.80;0.43;;;5.90;99.90;;;;;;5033891;28;20232;-88
2023/12/06 03:31:55;;;;;;;0.80;0.50;;;5.90;99.90;;;;;;5031741;28;20181;-88
2023/12/06 03:34:21;;;;;;;0.60;0.50;;;6.00;99.90;;;;;;5037618;28;20584;-88
2023/12/06 03:36:47;;;;;;;0.63;0.63;;;5.80;99.90;;;;;;5035697;28;20209;-86
2023/12/06 03:39:12;;;;;;;0.70;0.50;;;6.30;99.90;;;;;;5040587;28;20207;-86
2023/12/06 03:41:38;;;;;;;0.80;0.60;;;5.90;99.90;;;;;;5034568;28;20174;-86
2023/12/06 03:44:03;;;;;;;0.57;0.50;;;5.90;99.90;;;;;;5034064;28;20205;-88
2023/12/06 03:46:29;;;;;;;0.60;0.50;;;6.20;99.90;;;;;;5031706;28;20182;-88
2023/12/06 03:48:55;;;;;;;1.10;0.60;;;5.80;99.90;;;;;;5032644;28;20184;-88
2023/12/06 03:51:20;;;;;;;0.60;0.50;;;6.30;99.90;;;;;;5038243;28;20181;-88
2023/12/06 03:53:46;;;;;;;0.60;0.60;;;6.30;99.90;;;;;;5037443;28;20590;-87
2023/12/06 03:56:11;;;;;;;0.70;0.53;;;6.30;99.90;;;;;;5034346;28;20189;-88
2023/12/06 03:58:38;;;;;;;0.70;0.57;;;6.00;99.90;;;;;;5032470;28;20210;-88
2023/12/06 04:01:03;;;;;;;0.75;0.60;;;6.30;99.90;;;;;;5034309;28;20227;-88
2023/12/06 04:03:29;;;;;;;0.73;0.57;;;6.10;99.90;;;;;;5040081;28;20674;-88
2023/12/06 04:05:54;;;;;;;0.60;0.50;;;6.00;99.90;;;;;;5033930;28;20436;-88
2023/12/06 04:08:20;;;;;;;0.50;0.40;;;6.10;99.90;;;;;;5039326;28;20219;-88
2023/12/06 04:10:45;;;;;;;0.60;0.50;;;6.10;99.90;;;;;;5033831;28;20189;-88
2023/12/06 04:13:11;;;;;;;0.70;0.50;;;6.00;99.90;;;;;;5034461;28;20185;-88
2023/12/06 04:15:36;;;;;;;0.60;0.50;;;6.00;99.90;;;;;;5036806;28;20181;-88
2023/12/06 04:18:02;;;;;;;0.60;0.50;;;6.40;99.90;;;;;;5048061;28;20207;-88
2023/12/06 04:20:27;;;;;;;0.70;0.60;;;6.20;99.90;;;;;;5059497;28;20323;-88
2023/12/06 04:22:53;;;;;;;0.70;0.50;;;6.20;99.90;;;;;;5054364;28;20176;-88
2023/12/06 04:25:19;;;;;;;0.60;0.40;;;6.10;99.90;;;;;;5033550;28;20205;-88
2023/12/06 04:27:44;;;;;;;0.90;0.50;;;5.60;99.90;;;;;;5031965;28;20252;-88
2023/12/06 04:30:11;;;;;;;0.50;0.40;;;6.10;99.90;;;;;;5035773;28;20482;-88
2023/12/06 04:32:36;;;;;;;0.60;0.40;;;6.30;99.90;;;;;;5036408;28;20186;-88
2023/12/06 04:35:03;;;;;;;0.70;0.60;;;6.50;99.90;;;;;;5035530;28;20270;-88
2023/12/06 04:37:28;;;;;;;0.60;0.50;;;6.10;99.90;;;;;;5036824;28;20216;-88
2023/12/06 04:39:54;;;;;;;0.63;0.60;;;6.50;99.90;;;;;;5039567;28;20186;-88
2023/12/06 04:42:20;;;;;;;1.00;0.50;;;6.00;99.90;;;;;;5035833;28;20216;-88
2023/12/06 04:44:46;;;;;;;0.60;0.50;;;5.90;99.90;;;;;;5040803;28;21083;-88
2023/12/06 04:47:11;;;;;;;0.60;0.60;;;6.40;99.90;;;;;;5036021;28;20216;-88
2023/12/06 04:49:37;;;;;;;0.60;0.60;;;6.20;99.90;;;;;;5042884;28;20887;-88
2023/12/06 04:52:03;;;;;;;1.27;0.50;;;6.20;99.90;;;;;;5067238;28;20185;-88
2023/12/06 04:54:28;;;;;;;0.70;0.57;;;6.20;99.90;;;;;;5034529;28;20256;-88
2023/12/06 04:56:54;;;;;;;0.73;0.63;;;6.30;99.90;;;;;;5034525;28;20237;-88
2023/12/06 04:59:19;;;;;;;0.70;0.50;;;6.20;99.90;;;;;;5038973;28;20211;-88
2023/12/06 05:01:45;;;;;;;0.63;0.50;;;6.60;99.90;;;;;;5033421;28;20182;-88
2023/12/06 05:04:10;;;;;;;1.20;0.70;;;6.50;99.90;;;;;;5031562;28;20205;-88
2023/12/06 05:06:36;;;;;;;0.57;0.47;;;6.30;99.90;;;;;;5030096;28;20222;-88
2023/12/06 05:09:04;;;;;;;0.70;0.50;;;6.40;99.90;;;;;;5030442;28;20213;-88
2023/12/06 05:11:30;;;;;;;0.70;0.60;;;6.10;99.90;;;;;;5018318;28;20181;-88
2023/12/06 05:13:56;;;;;;;0.60;0.50;;;6.30;99.90;;;;;;5035875;28;20240;-88
2023/12/06 05:16:22;;;;;;;0.60;0.43;;;6.50;99.90;;;;;;5032823;28;20176;-86
2023/12/06 05:18:47;;;;;;;0.70;0.53;;;6.30;99.90;;;;;;5034811;28;20441;-87
2023/12/06 05:21:13;;;;;;;0.70;0.50;;;6.40;99.90;;;;;;5057067;28;20240;-86
2023/12/06 05:23:38;;;;;;;0.60;0.53;;;6.60;99.90;;;;;;5060984;28;20257;-86
2023/12/06 05:26:04;;;;;;;1.23;0.50;;;6.50;99.90;;;;;;5041897;28;20186;-86
2023/12/06 05:28:29;;;;;;;1.60;0.60;;;5.90;99.90;;;;;;5049577;28;20182;-88
2023/12/06 05:30:55;;;;;;;0.67;0.60;;;6.50;99.90;;;;;;5050065;28;20272;-88
2023/12/06 05:33:20;;;;;;;0.80;0.60;;;6.60;99.90;;;;;;5035054;28;20223;-88
2023/12/06 05:35:47;;;;;;;1.63;0.60;;;6.20;99.90;;;;;;5032702;28;20177;-88
2023/12/06 05:38:12;;;;;;;0.60;0.50;;;6.10;99.90;;;;;;5031187;28;20260;-88
2023/12/06 05:40:38;;;;;;;0.67;0.60;;;6.60;99.90;;;;;;5032501;28;20305;-88
2023/12/06 05:43:03;;;;;;;0.83;0.60;;;6.10;99.90;;;;;;5016846;28;20182;-88
2023/12/06 05:45:29;;;;;;;0.90;0.60;;;6.00;99.90;;;;;;5040377;28;20203;-88
2023/12/06 05:47:55;;;;;;;0.80;0.60;;;6.50;99.90;;;;;;5036478;28;20177;-88
2023/12/06 05:50:20;;;;;;;1.57;0.60;;;6.30;99.90;;;;;;5036811;28;20533;-88
2023/12/06 05:52:46;;;;;;;0.60;0.50;;;6.90;99.90;;;;;;5055905;28;20460;-89
2023/12/06 05:55:11;;;;;;;0.80;0.50;;;6.20;99.90;;;;;;5048246;28;20305;-88
2023/12/06 05:57:37;;;;;;;1.00;0.90;;;6.10;99.90;;;;;;5037722;28;20209;-88
2023/12/06 06:00:05;;;;;;;0.73;0.70;;;6.20;99.90;;;;;;5037191;28;20209;-88
2023/12/06 06:02:31;;;;;;;0.80;0.60;;;6.30;99.90;;;;;;5041067;28;20231;-88
2023/12/06 06:04:56;;;;;;;0.80;0.67;;;6.30;99.90;;;;;;5039537;28;20861;-88
2023/12/06 06:07:22;;;;;;;0.70;0.60;;;6.10;99.90;;;;;;5037238;28;20194;-88
2023/12/06 06:09:47;;;;;;;0.70;0.60;;;6.40;99.90;;;;;;5039731;28;20185;-88
2023/12/06 06:12:13;;;;;;;0.97;0.70;;;6.40;99.90;;;;;;5035333;28;20204;-88
2023/12/06 06:14:38;;;;;;;2.20;0.93;;;6.30;99.90;;;;;;5036887;28;20198;-88
2023/12/06 06:17:04;;;;;;;1.10;0.93;;;6.40;99.90;;;;;;5037562;28;20197;-88
2023/12/06 06:19:29;;;;;;;2.60;1.30;;;6.60;99.90;;;;;;5038735;28;20189;-88
2023/12/06 06:21:55;;;;;;;1.63;0.90;;;6.40;99.90;;;;;;5036704;28;20230;-89
2023/12/06 06:24:20;;;;;;;0.90;0.80;;;6.00;99.90;;;;;;5042091;28;20736;-88
2023/12/06 06:26:46;;;;;;;2.07;1.53;;;6.50;99.90;;;;;;5071074;28;20188;-88
2023/12/06 06:29:12;;;;;;;0.80;0.80;;;6.50;99.90;;;;;;5059913;28;20194;-88
2023/12/06 06:31:37;;;;;;;0.70;0.60;;;6.70;99.90;;;;;;5059787;28;20189;-88
2023/12/06 06:34:05;;;;;;;1.33;0.70;;;6.40;99.90;;;;;;5062873;28;20184;-88
2023/12/06 06:36:31;;;;;;;0.70;0.60;;;6.30;99.90;;;;;;5059570;28;20208;-88
2023/12/06 06:38:57;;;;;;;0.70;0.67;;;6.50;99.90;;;;;;5038289;28;20194;-88
2023/12/06 06:41:24;;;;;;;0.90;0.60;;;6.20;99.90;;;;;;5039139;28;20514;-88
2023/12/06 06:43:51;;;;;;;0.90;0.70;;;6.00;99.90;;;;;;5037189;28;20197;-88
2023/12/06 06:46:16;;;;;;;1.13;0.73;;;6.20;99.90;;;;;;5035415;28;20181;-88
2023/12/06 06:48:44;;;;;;;0.80;0.67;;;6.40;99.90;;;;;;5054563;28;20193;-88
2023/12/06 06:51:10;;;;;;;1.33;0.65;;;6.60;99.90;;;;;;5037718;28;20218;-88
2023/12/06 06:53:35;;;;;;;1.10;1.00;;;6.30;99.90;;;;;;5040803;28;20783;-88
2023/12/06 06:56:02;;;;;;;0.80;0.77;;;6.40;99.90;;;;;;5045022;28;20181;-88
2023/12/06 06:58:27;;;;;;;1.40;1.08;;;6.20;99.90;;;;;;5042293;28;20217;-85
2023/12/06 07:00:53;;;;;;;0.80;0.80;;;6.40;99.90;;;;;;5039138;28;20360;-86
2023/12/06 07:03:19;;;;;;;1.10;1.00;;;6.30;99.90;;;;;;5038975;28;20826;-87
2023/12/06 07:05:45;;;;;;;1.43;0.90;;;6.30;99.90;;;;;;5019082;28;20875;-86
2023/12/06 07:08:10;;;;;;;0.90;0.73;;;6.30;99.90;;;;;;5034807;28;20479;-88
2023/12/06 07:10:38;;;;;;;1.10;0.70;;;6.70;99.90;;;;;;5042865;28;20674;-88
2023/12/06 07:13:04;;;;;;;2.03;0.80;;;6.30;99.90;;;;;;5038297;28;20191;-86
2023/12/06 07:15:29;;;;;;;0.83;0.73;;;6.30;99.90;;;;;;5045062;28;20304;-85
2023/12/06 07:17:57;;;;;;;1.10;0.90;;;6.70;99.90;;;;;;5042589;28;20194;-86
2023/12/06 07:20:24;;;;;;;0.90;0.80;;;6.60;99.90;;;;;;5044641;28;20213;-86
2023/12/06 07:22:49;;;;;;;0.98;0.88;;;7.00;99.90;;;;;;5039100;28;20185;-86
2023/12/06 07:25:15;;;;;;;1.10;0.80;;;6.60;99.90;;;;;;5034982;28;20198;-89
2023/12/06 07:27:44;;;;;;;1.20;1.00;;;6.70;99.90;;;;;;5038986;28;20220;-90
2023/12/06 07:30:12;;;;;;;1.10;0.88;;;7.10;99.90;;;;;;5035941;28;20719;-89
2023/12/06 07:32:38;;;;;;;1.05;0.80;;;6.80;99.90;;;;;;5048213;28;20190;-89
2023/12/06 07:35:04;;;;;;;1.10;0.90;;;7.00;99.90;;;;;;5040637;28;20220;-90
2023/12/06 07:37:29;;;;;;;1.43;0.87;;;6.60;99.90;;;;;;5036119;28;20213;-89
2023/12/06 07:39:55;;;;;;;0.70;0.67;;;7.00;99.90;;;;;;5038937;28;20410;-89
2023/12/06 07:42:20;;;;;;;1.10;0.93;;;7.20;99.90;;;;;;5032061;28;20186;-89
2023/12/06 07:44:46;;;;;;;1.10;0.80;;;6.90;99.90;;;;;;5031904;28;20428;-87
2023/12/06 07:47:11;;;;;;;2.40;1.43;;;6.90;99.90;;;;;;5036590;28;20217;-87
2023/12/06 07:49:37;;;;;;;1.20;1.00;;;7.10;99.90;;;;;;5042074;28;20594;-86
2023/12/06 07:52:03;;;;;;;1.57;1.20;;;7.10;99.90;;;;;;5022099;28;20276;-89
2023/12/06 07:54:28;;;;;;;1.07;0.97;;;6.60;99.90;;;;;;5035355;28;20209;-88
2023/12/06 07:56:54;;;;;;;1.20;1.03;;;7.20;99.90;;;;;;5037683;28;20414;-89
2023/12/06 07:59:19;;;;;;;1.77;0.90;;;7.20;99.90;;;;;;5053034;28;20212;-89
2023/12/06 08:01:45;;;;;;;1.03;0.87;;;7.00;99.90;;;;;;5037634;28;20190;-90
2023/12/06 08:04:10;;;;;;;1.43;1.10;;;7.30;99.90;;;;;;5044417;28;20208;-87
2023/12/06 08:06:36;;;;;;;1.10;1.00;;;6.90;99.90;;;;;;5066265;28;20173;-86
2023/12/06 08:09:02;;;;;;;1.10;1.00;;;7.30;99.90;;;;;;5059627;28;20189;-89
2023/12/06 08:11:27;;;;;;;1.40;1.10;;;7.10;99.90;;;;;;5051602;28;20653;-89
2023/12/06 08:13:53;;;;;;;1.30;1.03;;;6.80;99.90;;;;;;5043943;28;20491;-89
2023/12/06 08:16:18;;;;;;;1.47;1.37;;;7.10;99.90;;;;;;5052127;28;20185;-89
2023/12/06 08:18:44;;;;;;;1.13;1.00;;;7.40;99.90;;;;;;5055810;28;20198;-88
2023/12/06 08:21:11;;;;;;;1.57;1.20;;;7.10;99.90;;;;;;5043324;28;20386;-88
2023/12/06 08:23:37;;;;;;;1.20;1.10;;;7.10;99.90;;;;;;5035859;28;20705;-87
2023/12/06 08:26:06;;;;;;;1.20;1.10;;;7.00;99.90;;;;;;5051516;28;20197;-87
2023/12/06 08:28:32;;;;;;;1.25;1.15;;;6.60;99.90;;;;;;5036176;28;20638;-87
2023/12/06 08:30:58;;;;;;;1.50;1.20;;;7.20;99.90;;;;;;5040518;28;20551;-86
2023/12/06 08:33:23;;;;;;;2.20;1.67;;;7.30;99.90;;;;;;5034097;28;20208;-86
2023/12/06 08:35:54;;;;;;;2.60;2.30;;;7.40;99.90;;;;;;5037144;28;20246;-87
2023/12/06 08:38:20;;;;;;;1.50;1.40;;;7.70;99.90;;;;;;5036214;28;20225;-86
2023/12/06 08:40:46;;;;;;;1.75;1.52;;;6.90;99.90;;;;;;5034704;28;20193;-86
2023/12/06 08:43:11;;;;;;;2.37;1.97;;;8.20;99.90;;;;;;5037173;28;20186;-86
2023/12/06 08:45:37;;;;;;;2.80;2.50;;;7.00;99.90;;;;;;5053026;28;20209;-86
2023/12/06 08:48:04;;;;;;;2.60;2.40;;;7.80;99.90;;;;;;5053034;28;20178;-86
2023/12/06 08:50:29;;;;;;;3.05;2.55;;;7.30;99.90;;;;;;5037340;28;20213;-86
2023/12/06 08:52:55;;;;;;;2.83;2.63;;;8.30;99.90;;;;;;5035185;28;20216;-86
2023/12/06 08:55:21;;;;;;;4.40;4.00;;;5.90;99.90;;;;;;5028872;28;20929;-86
2023/12/06 08:57:46;;;;;;;4.83;4.43;;;8.40;99.90;;;;;;5032506;28;20413;-88
2023/12/06 09:00:14;;;;;;;5.57;4.97;;;6.30;99.90;;;;;;5031096;28;20219;-87
2023/12/06 09:02:42;;;;;;;5.70;5.00;;;6.60;99.90;;;;;;5027523;28;20494;-86
2023/12/06 09:05:10;;;;;;;5.82;5.22;;;6.60;99.90;;;;;;5031886;28;20197;-87
2023/12/06 09:07:35;;;;;;;5.35;4.85;;;6.60;99.90;;;;;;5049624;28;20197;-87
2023/12/06 09:10:01;;;;;;;6.60;5.90;;;6.80;99.90;;;;;;5049590;28;20658;-86
2023/12/06 09:12:26;;;;;;;6.90;6.30;;;6.50;99.90;;;;;;5035538;28;20193;-87
2023/12/06 09:14:52;;;;;;;8.00;6.30;;;6.70;99.90;;;;;;5035509;28;20201;-89
2023/12/06 09:17:17;;;;;;;6.67;6.00;;;6.60;99.90;;;;;;5034405;28;20210;-87
2023/12/06 09:19:43;;;;;;;7.27;6.57;;;6.70;99.90;;;;;;5035540;28;20189;-87
2023/12/06 09:22:08;;;;;;;9.87;6.40;;;6.60;99.90;;;;;;5035211;28;20638;-87
2023/12/06 09:24:34;;;;;;;8.50;6.97;;;6.70;99.90;;;;;;5037976;28;20209;-87
2023/12/06 09:26:59;;;;;;;7.30;6.50;;;6.70;99.90;;;;;;5042770;28;20963;-87
2023/12/06 09:29:25;;;;;;;7.20;6.43;;;6.40;99.90;;;;;;5042735;28;20205;-88
2023/12/06 09:31:50;;;;;;;7.60;6.80;;;6.90;99.90;;;;;;5042708;28;20237;-89
2023/12/06 09:34:16;;;;;;;7.70;6.90;;;6.60;99.90;;;;;;5039518;28;20685;-89
2023/12/06 09:36:41;;;;;;;7.13;6.40;;;6.40;99.90;;;;;;5045130;28;20192;-86
2023/12/06 09:39:07;;;;;;;8.43;7.60;;;6.80;99.90;;;;;;5040797;28;20193;-87
2023/12/06 09:41:33;;;;;;;7.70;6.97;;;6.80;99.90;;;;;;5046775;28;20177;-87
2023/12/06 09:44:01;;;;;;;7.20;6.50;;;6.10;99.90;;;;;;5056472;28;20219;-88
2023/12/06 09:46:27;;;;;;;7.80;6.85;;;6.70;99.90;;;;;;5041639;28;20231;-88
2023/12/06 09:48:53;;;;;;;8.80;7.90;;;6.30;99.90;;;;;;5059911;28;20642;-90
2023/12/06 09:51:20;;;;;;;7.23;6.53;;;6.80;99.90;;;;;;5042871;28;20189;-87
2023/12/06 09:53:46;;;;;;;10.10;6.80;;;6.70;99.90;;;;;;5039451;28;20198;-89
2023/12/06 09:56:13;;;;;;;7.10;6.40;;;6.30;99.90;;;;;;5039644;28;20706;-87
2023/12/06 09:58:39;;;;;;;7.07;6.32;;;6.80;99.90;;;;;;5035948;28;20522;-87
2023/12/06 10:01:05;;;;;;;7.28;6.50;;;6.30;99.90;;;;;;5034847;28;20177;-88
2023/12/06 10:03:32;;;;;;;8.70;7.73;;;6.30;99.90;;;;;;5033523;28;20193;-88
2023/12/06 10:06:04;;;;;;;7.57;6.80;;;6.40;99.90;;;;;;5035096;28;21000;-90
2023/12/06 10:08:33;;;;;;;10.15;8.25;;;6.40;99.90;;;;;;5054073;28;20190;-90
2023/12/06 10:11:12;;;;;;;10.63;8.95;;;6.60;99.90;;;;;;5053214;28;20190;-90
2023/12/06 10:13:40;;;;;;;9.80;6.80;;;6.90;99.90;;;;;;5034894;28;20232;-89
2023/12/06 10:16:19;;;;;;;9.27;7.90;;;6.60;99.90;;;;;;5051980;28;20662;-88
2023/12/06 10:18:47;;;;;;;8.13;7.20;;;6.60;99.90;;;;;;5042358;28;20351;-87
2023/12/06 10:21:13;;;;;;;9.65;7.57;;;6.40;99.90;;;;;;5051000;28;20189;-89
2023/12/06 10:23:38;;;;;;;7.50;6.70;;;6.50;99.90;;;;;;5055753;28;20228;-87
2023/12/06 10:26:14;;;;;;;8.50;7.70;;;6.20;99.90;;;;;;5057489;28;20194;-88
2023/12/06 10:28:40;;;;;;;7.30;6.35;;;6.40;99.90;;;;;;5036464;28;20268;-88
2023/12/06 10:31:07;;;;;;;7.33;6.63;;;6.90;99.90;;;;;;5049185;28;20181;-88
2023/12/06 10:33:33;;;;;;;8.23;6.80;;;6.60;99.90;;;;;;5060043;28;20185;-88
2023/12/06 10:36:01;;;;;;;8.60;6.10;;;6.70;99.90;;;;;;5075408;28;20216;-87
2023/12/06 10:38:28;;;;;;;7.10;6.40;;;6.30;99.90;;;;;;5068479;28;20222;-86
2023/12/06 10:40:55;;;;;;;7.70;6.90;;;6.70;99.90;;;;;;5037289;28;20558;-88
2023/12/06 10:43:22;;;;;;;8.40;7.30;;;6.40;99.90;;;;;;5037005;28;20197;-89
2023/12/06 10:45:50;;;;;;;7.15;6.40;;;6.90;99.90;;;;;;5037848;28;20178;-88
2023/12/06 10:48:17;;;;;;;7.55;6.80;;;6.60;99.90;;;;;;5038164;28;20190;-89
2023/12/06 10:50:43;;;;;;;7.20;6.53;;;6.50;99.90;;;;;;5037725;28;20182;-88
2023/12/06 10:53:16;;;;;;;7.30;6.60;;;6.70;99.90;;;;;;5038206;28;20238;-88
2023/12/06 10:55:42;;;;;;;6.90;6.20;;;6.40;99.90;;;;;;5036161;28;20196;-87
2023/12/06 10:58:08;;;;;;;7.45;6.75;;;6.60;99.90;;;;;;5041486;28;20202;-87
2023/12/06 11:00:34;;;;;;;8.18;7.38;;;6.90;99.90;;;;;;5039192;28;20775;-88
2023/12/06 11:03:01;;;;;;;6.82;6.13;;;7.00;99.90;;;;;;5034026;28;21016;-90
2023/12/06 11:05:30;;;;;;;7.13;6.38;;;7.30;99.90;;;;;;5034983;28;20223;-88
2023/12/06 11:08:31;;;;;;;7.05;6.35;;;6.90;99.90;;;;;;5033337;28;20638;-88
2023/12/06 11:11:09;;;;;;;8.63;7.03;;;6.90;99.90;;;;;;5036153;28;20197;-89
2023/12/06 11:13:51;;;;;;;8.02;6.40;;;6.90;99.90;;;;;;5034511;28;20264;-90
2023/12/06 11:16:36;;;;;;;7.35;6.10;;;6.80;99.90;;;;;;5048421;28;20279;-90
2023/12/06 11:19:02;;;;;;;6.30;5.70;;;6.80;99.90;;;;;;5037866;28;20212;-90
2023/12/06 11:21:28;;;;;;;7.57;5.90;;;7.10;99.90;;;;;;5018090;28;20189;-89
2023/12/06 11:23:55;;;;;;;6.95;6.25;;;6.90;99.90;;;;;;5034456;28;20846;-90
2023/12/06 11:26:21;;;;;;;6.30;5.40;;;7.20;99.90;;;;;;5037299;28;20192;-90
2023/12/06 11:28:50;;;;;;;7.28;5.75;;;6.80;99.90;;;;;;5029417;28;20214;-90
2023/12/06 11:31:16;;;;;;;7.30;6.32;;;6.90;99.90;;;;;;5018541;28;20212;-90
2023/12/06 11:33:55;;;;;;;6.30;5.70;;;6.80;99.90;;;;;;5040647;28;20204;-90
2023/12/06 11:36:24;;;;;;;7.68;5.47;;;6.80;99.90;;;;;;5040119;28;20189;-90
2023/12/06 11:38:49;;;;;;;6.05;5.45;;;8.40;99.90;;;;;;5033330;28;20656;-90
2023/12/06 11:41:16;;;;;;;7.37;5.30;;;7.40;99.90;;;;;;5029696;28;20203;-90
2023/12/06 11:43:51;;;;;;;6.22;5.63;;;7.10;99.90;;;;;;5024410;28;20201;-89
2023/12/06 11:46:17;;;;;;;6.57;5.93;;;7.00;99.90;;;;;;5035739;28;20284;-90
2023/12/06 11:48:47;;;;;;;7.93;6.10;;;7.10;99.90;;;;;;5019436;28;20235;-90
2023/12/06 11:51:20;;;;;;;6.88;5.80;;;7.00;99.90;;;;;;5050027;28;20190;-89
2023/12/06 11:53:46;;;;;;;7.22;6.53;;;6.80;99.90;;;;;;5030877;28;20215;-88
2023/12/06 11:56:12;;;;;;;7.93;6.97;;;6.80;99.90;;;;;;5034947;28;20303;-88
2023/12/06 11:58:38;;;;;;;7.40;6.23;;;6.90;99.90;;;;;;5033522;28;20682;-88
2023/12/06 12:01:05;;;;;;;7.68;6.80;;;6.50;99.90;;;;;;5035319;28;20178;-88
2023/12/06 12:03:31;;;;;;;7.53;6.40;;;6.60;99.90;;;;;;5024220;28;20228;-88
2023/12/06 12:05:58;;;;;;;7.60;6.45;;;6.70;99.90;;;;;;5038652;28;20186;-88
2023/12/06 12:08:24;;;;;;;8.20;7.40;;;7.10;99.90;;;;;;5023916;28;20186;-88
2023/12/06 12:10:50;;;;;;;7.78;6.85;;;6.90;99.90;;;;;;5036799;28;20242;-89
2023/12/06 12:13:22;;;;;;;8.48;7.57;;;6.50;99.90;;;;;;5034724;28;20189;-89
2023/12/06 12:16:00;;;;;;;8.32;7.43;;;6.90;99.90;;;;;;5038911;28;20188;-89
2023/12/06 12:18:27;;;;;;;6.82;6.18;;;6.50;99.90;;;;;;5033301;28;20197;-88
2023/12/06 12:20:53;;;;;;;6.80;6.13;;;6.80;99.90;;;;;;5060382;28;20178;-89
2023/12/06 12:23:18;;;;;;;7.87;6.70;;;6.30;99.90;;;;;;5032649;28;20538;-89
2023/12/06 12:25:51;;;;;;;9.00;7.40;;;6.40;99.90;;;;;;5037243;28;20406;-88
2023/12/06 12:28:18;;;;;;;7.40;6.63;;;6.30;99.90;;;;;;5013100;28;20224;-88
2023/12/06 12:30:46;;;;;;;11.38;7.53;;;6.50;99.90;;;;;;5032363;28;20213;-88
2023/12/06 12:33:15;;;;;;;7.22;6.47;;;7.00;99.90;;;;;;5033694;28;20194;-88
2023/12/06 12:35:42;;;;;;;7.95;7.15;;;6.70;99.90;;;;;;5033328;28;20243;-89
2023/12/06 12:38:09;;;;;;;7.85;6.65;;;6.50;99.90;;;;;;5036698;28;20224;-87
2023/12/06 12:40:34;;;;;;;6.13;5.60;;;6.50;99.90;;;;;;5036297;28;20177;-89
2023/12/06 12:43:00;;;;;;;7.93;7.03;;;6.50;99.90;;;;;;5029838;28;20189;-88
2023/12/06 12:45:26;;;;;;;7.50;6.70;;;6.50;99.90;;;;;;5034472;28;20958;-89
2023/12/06 12:47:53;;;;;;;8.30;6.45;;;6.30;99.90;;;;;;5031679;28;20187;-87
2023/12/06 12:50:20;;;;;;;7.10;6.43;;;6.50;99.90;;;;;;5031333;28;20190;-88
2023/12/06 12:52:47;;;;;;;8.00;6.47;;;6.50;99.90;;;;;;5034787;28;20561;-88